createdAt,value
2018-05-11T00:00:44.662Z,100591.34
2018-05-11T00:03:12.152Z,100592.23
2018-05-11T00:05:39.618Z,100593.02
2018-05-11T00:08:07.082Z,100595.47
2018-05-11T00:10:34.591Z,100594.61
2018-05-11T00:13:02.054Z,100597.33
2018-05-11T00:15:29.541Z,100600.45
2018-05-11T00:17:57.006Z,100601.19
2018-05-11T00:20:24.498Z,100604.27
2018-05-11T00:22:51.962Z,100608.72
2018-05-11T00:25:19.442Z,100611.55
2018-05-11T00:27:46.905Z,100615.03
2018-05-11T00:30:14.389Z,100610.73
2018-05-11T00:32:41.859Z,100616.38
2018-05-11T00:35:09.336Z,100622.59
2018-05-11T00:37:36.797Z,100626.48
2018-05-11T00:40:04.286Z,100620.61
2018-05-11T00:42:31.757Z,100620.87
2018-05-11T00:44:59.269Z,100616.79
2018-05-11T00:47:26.744Z,100621.02
2018-05-11T00:49:54.319Z,100627.09
2018-05-11T00:52:21.809Z,100626.25
2018-05-11T00:54:49.298Z,100625.58
2018-05-11T00:57:16.769Z,100621.71
2018-05-11T00:59:44.262Z,100625.79
2018-05-11T01:02:11.727Z,100624.22
2018-05-11T01:04:39.209Z,100619.67
2018-05-11T01:07:06.682Z,100622.12
2018-05-11T01:09:34.180Z,100622.80
2018-05-11T01:12:01.698Z,100619.94
2018-05-11T01:14:29.536Z,100619.42
2018-05-11T01:16:57.059Z,100617.32
2018-05-11T01:19:24.539Z,100622.12
2018-05-11T01:21:52.015Z,100622.01
2018-05-11T01:24:19.506Z,100612.02
2018-05-11T01:26:46.969Z,100611.05
2018-05-11T01:29:14.429Z,100604.44
2018-05-11T01:31:41.922Z,100611.11
2018-05-11T01:34:09.394Z,100605.84
2018-05-11T01:36:36.878Z,100604.83
2018-05-11T01:39:04.354Z,100608.78
2018-05-11T01:41:31.853Z,100606.66
2018-05-11T01:44:00.123Z,100604.66
2018-05-11T01:46:27.623Z,100597.35
2018-05-11T01:48:55.115Z,100598.70
2018-05-11T01:51:22.597Z,100598.75
2018-05-11T01:53:50.069Z,100595.41
2018-05-11T01:56:17.567Z,100593.20
2018-05-11T01:58:45.083Z,100600.84
2018-05-11T02:01:12.582Z,100604.13
2018-05-11T02:03:40.060Z,100604.69
2018-05-11T02:06:07.566Z,100611.66
2018-05-11T02:08:35.038Z,100600.75
2018-05-11T02:11:02.529Z,100595.03
2018-05-11T02:13:30.007Z,100590.69
2018-05-11T02:15:57.497Z,100593.17
2018-05-11T02:18:24.969Z,100599.97
2018-05-11T02:20:52.468Z,100596.34
2018-05-11T02:23:19.961Z,100597.53
2018-05-11T02:25:47.521Z,100592.97
2018-05-11T02:28:14.934Z,100589.24
2018-05-11T02:30:42.427Z,100590.09
2018-05-11T02:33:09.903Z,100599.63
2018-05-11T02:35:37.398Z,100598.98
2018-05-11T02:38:04.875Z,100599.62
2018-05-11T02:40:32.373Z,100601.56
2018-05-11T02:42:59.833Z,100602.02
2018-05-11T02:45:27.325Z,100590.73
2018-05-11T02:47:54.803Z,100588.61
2018-05-11T02:50:22.298Z,100595.55
2018-05-11T02:52:49.781Z,100591.59
2018-05-11T02:55:17.250Z,100590.63
2018-05-11T02:57:44.737Z,100591.16
2018-05-11T03:00:12.202Z,100594.73
2018-05-11T03:02:39.681Z,100592.69
2018-05-11T03:05:07.142Z,100595.28
2018-05-11T03:07:34.634Z,100596.92
2018-05-11T03:10:02.168Z,100593.00
2018-05-11T03:12:29.658Z,100588.04
2018-05-11T03:14:57.127Z,100596.50
2018-05-11T03:17:24.618Z,100595.63
2018-05-11T03:19:52.082Z,100597.75
2018-05-11T03:22:19.569Z,100599.87
2018-05-11T03:24:47.032Z,100602.33
2018-05-11T03:27:14.522Z,100604.20
2018-05-11T03:29:41.997Z,100607.71
2018-05-11T03:32:09.482Z,100606.25
2018-05-11T03:34:36.950Z,100615.44
2018-05-11T03:37:04.454Z,100610.27
2018-05-11T03:39:31.927Z,100606.63
2018-05-11T03:41:59.409Z,100619.15
2018-05-11T03:44:26.881Z,100611.23
2018-05-11T03:46:54.376Z,100611.66
2018-05-11T03:49:21.838Z,100613.73
2018-05-11T03:51:49.327Z,100611.30
2018-05-11T03:54:16.801Z,100616.34
2018-05-11T03:56:44.281Z,100616.03
2018-05-11T03:59:11.817Z,100623.20
2018-05-11T04:01:51.250Z,100620.63
2018-05-11T04:04:30.375Z,100615.92
2018-05-11T04:07:09.684Z,100617.34
2018-05-11T04:09:37.153Z,100622.34
2018-05-11T04:12:04.649Z,100624.52
2018-05-11T04:14:32.969Z,100623.34
2018-05-11T04:17:00.457Z,100623.01
2018-05-11T04:19:27.926Z,100621.09
2018-05-11T04:21:55.411Z,100622.08
2018-05-11T04:24:22.890Z,100620.49
2018-05-11T04:26:50.588Z,100623.34
2018-05-11T04:29:18.076Z,100615.41
2018-05-11T04:31:45.542Z,100618.63
2018-05-11T04:34:13.097Z,100619.61
2018-05-11T04:36:40.584Z,100629.11
2018-05-11T04:39:08.070Z,100632.56
2018-05-11T04:41:35.537Z,100632.99
2018-05-11T04:44:03.030Z,100628.69
2018-05-11T04:46:30.509Z,100633.75
2018-05-11T04:48:58.010Z,100631.14
2018-05-11T04:51:25.477Z,100635.03
2018-05-11T04:53:52.963Z,100630.91
2018-05-11T04:56:20.454Z,100632.61
2018-05-11T04:58:47.953Z,100639.70
2018-05-11T05:01:16.548Z,100646.00
2018-05-11T05:03:44.041Z,100644.70
2018-05-11T05:06:11.502Z,100647.52
2018-05-11T05:08:38.993Z,100643.66
2018-05-11T05:11:06.465Z,100642.98
2018-05-11T05:13:33.954Z,100643.13
2018-05-11T05:16:01.426Z,100633.62
2018-05-11T05:18:28.917Z,100633.22
2018-05-11T05:20:56.389Z,100640.94
2018-05-11T05:23:23.882Z,100637.88
2018-05-11T05:25:51.363Z,100634.59
2018-05-11T05:28:18.862Z,100634.36
2018-05-11T05:30:46.399Z,100634.08
2018-05-11T05:33:13.996Z,100639.42
2018-05-11T05:35:41.396Z,100644.22
2018-05-11T05:38:08.893Z,100646.45
2018-05-11T05:40:36.377Z,100645.20
2018-05-11T05:43:03.846Z,100643.77
2018-05-11T05:45:31.342Z,100651.05
2018-05-11T05:47:58.809Z,100648.46
2018-05-11T05:50:26.297Z,100644.67
2018-05-11T05:52:53.809Z,100645.63
2018-05-11T05:55:21.310Z,100638.79
2018-05-11T05:57:48.798Z,100637.22
2018-05-11T06:00:16.316Z,100642.95
2018-05-11T06:02:43.791Z,100640.13
2018-05-11T06:05:11.299Z,100635.86
2018-05-11T06:07:38.775Z,100634.30
2018-05-11T06:10:06.271Z,100638.73
2018-05-11T06:12:33.750Z,100629.87
2018-05-11T06:15:01.239Z,100635.84
2018-05-11T06:17:29.606Z,100641.20
2018-05-11T06:19:57.093Z,100637.16
2018-05-11T06:22:24.561Z,100632.77
2018-05-11T06:24:52.232Z,100637.44
2018-05-11T06:27:19.543Z,100641.66
2018-05-11T06:29:47.038Z,100631.67
2018-05-11T06:32:14.513Z,100639.16
2018-05-11T06:34:42.015Z,100637.92
2018-05-11T06:37:09.495Z,100636.11
2018-05-11T06:39:36.982Z,100641.83
2018-05-11T06:42:04.461Z,100643.40
2018-05-11T06:44:31.954Z,100644.50
2018-05-11T06:46:59.417Z,100639.27
2018-05-11T06:49:26.910Z,100640.61
2018-05-11T06:51:54.386Z,100641.86
2018-05-11T06:54:21.893Z,100638.41
2018-05-11T06:56:49.362Z,100636.20
2018-05-11T06:59:16.830Z,100632.78
2018-05-11T07:01:44.316Z,100632.80
2018-05-11T07:04:11.785Z,100634.72
2018-05-11T07:06:39.270Z,100629.77
2018-05-11T07:09:06.742Z,100629.14
2018-05-11T07:11:34.233Z,100622.05
2018-05-11T07:14:01.714Z,100618.03
2018-05-11T07:16:29.209Z,100620.30
2018-05-11T07:18:56.687Z,100607.94
2018-05-11T07:21:24.182Z,100614.70
2018-05-11T07:23:51.656Z,100615.11
2018-05-11T07:26:19.137Z,100611.78
2018-05-11T07:28:46.605Z,100611.09
2018-05-11T07:31:14.094Z,100611.80
2018-05-11T07:33:41.585Z,100612.20
2018-05-11T07:36:09.077Z,100616.16
2018-05-11T07:38:36.552Z,100608.97
2018-05-11T07:41:04.042Z,100600.58
2018-05-11T07:43:31.606Z,100604.97
2018-05-11T07:45:59.013Z,100605.64
2018-05-11T07:48:26.482Z,100605.54
2018-05-11T07:50:53.977Z,100598.43
2018-05-11T07:53:21.450Z,100600.20
2018-05-11T07:55:48.937Z,100600.58
2018-05-11T07:58:16.475Z,100602.16
2018-05-11T08:00:43.970Z,100601.58
2018-05-11T08:03:11.447Z,100598.20
2018-05-11T08:05:38.929Z,100592.50
2018-05-11T08:08:06.410Z,100593.22
2018-05-11T08:10:33.897Z,100592.41
2018-05-11T08:13:01.362Z,100582.41
2018-05-11T08:15:28.869Z,100582.86
2018-05-11T08:17:56.334Z,100580.67
2018-05-11T08:20:23.805Z,100581.05
2018-05-11T08:22:51.290Z,100585.98
2018-05-11T08:25:18.770Z,100578.56
2018-05-11T08:27:46.261Z,100573.96
2018-05-11T08:30:13.734Z,100574.56
2018-05-11T08:32:41.222Z,100565.77
2018-05-11T08:35:08.694Z,100567.39
2018-05-11T08:37:36.185Z,100567.59
2018-05-11T08:40:03.667Z,100570.87
2018-05-11T08:42:31.162Z,100571.98
2018-05-11T08:44:58.628Z,100568.57
2018-05-11T08:47:26.117Z,100565.40
2018-05-11T08:49:53.581Z,100561.70
2018-05-11T08:52:21.069Z,100558.30
2018-05-11T08:54:48.541Z,100560.88
2018-05-11T08:57:16.117Z,100560.36
2018-05-11T08:59:43.518Z,100560.58
2018-05-11T09:02:11.012Z,100546.94
2018-05-11T09:04:38.490Z,100546.58
2018-05-11T09:07:05.982Z,100549.33
2018-05-11T09:09:33.462Z,100539.05
2018-05-11T09:12:00.946Z,100535.91
2018-05-11T09:14:28.427Z,100531.41
2018-05-11T09:16:55.918Z,100529.08
2018-05-11T09:19:23.393Z,100526.75
2018-05-11T09:21:50.884Z,100512.91
2018-05-11T09:24:18.354Z,100512.89
2018-05-11T09:26:45.838Z,100507.28
2018-05-11T09:29:13.306Z,100512.00
2018-05-11T09:31:40.861Z,100508.57
2018-05-11T09:34:08.290Z,100509.45
2018-05-11T09:36:35.782Z,100505.14
2018-05-11T09:39:03.253Z,100507.03
2018-05-11T09:41:30.721Z,100501.27
2018-05-11T09:43:58.214Z,100499.17
2018-05-11T09:46:25.729Z,100497.95
2018-05-11T09:48:53.217Z,100494.23
2018-05-11T09:51:20.681Z,100491.14
2018-05-11T09:53:48.165Z,100481.68
2018-05-11T09:56:15.630Z,100480.45
2018-05-11T09:58:43.131Z,100480.48
2018-05-11T10:01:10.604Z,100475.36
2018-05-11T10:03:38.098Z,100470.42
2018-05-11T10:06:05.562Z,100469.59
2018-05-11T10:08:33.047Z,100469.12
2018-05-11T10:11:00.518Z,100463.21
2018-05-11T10:13:28.007Z,100466.33
2018-05-11T10:15:55.475Z,100468.40
2018-05-11T10:18:22.967Z,100461.59
2018-05-11T10:20:50.450Z,100455.67
2018-05-11T10:23:17.941Z,100465.47
2018-05-11T10:25:45.405Z,100456.38
2018-05-11T10:28:12.894Z,100458.76
2018-05-11T10:30:40.358Z,100450.50
2018-05-11T10:33:07.838Z,100444.61
2018-05-11T10:35:35.318Z,100447.07
2018-05-11T10:38:02.812Z,100438.48
2018-05-11T10:40:30.284Z,100433.93
2018-05-11T10:42:57.773Z,100433.00
2018-05-11T10:45:25.247Z,100428.70
2018-05-11T10:47:52.744Z,100432.66
2018-05-11T10:50:20.208Z,100433.69
2018-05-11T10:52:47.694Z,100426.97
2018-05-11T10:55:15.166Z,100415.88
2018-05-11T10:57:42.655Z,100416.80
2018-05-11T11:00:10.140Z,100413.97
2018-05-11T11:02:37.625Z,100410.19
2018-05-11T11:05:05.102Z,100413.91
2018-05-11T11:07:32.572Z,100408.43
2018-05-11T11:10:00.063Z,100411.49
2018-05-11T11:12:27.530Z,100412.18
2018-05-11T11:14:55.015Z,100406.01
2018-05-11T11:17:22.498Z,100405.12
2018-05-11T11:19:49.985Z,100403.89
2018-05-11T11:22:17.450Z,100400.80
2018-05-11T11:24:44.944Z,100390.94
2018-05-11T11:27:12.418Z,100388.27
2018-05-11T11:29:39.909Z,100385.20
2018-05-11T11:32:07.387Z,100376.88
2018-05-11T11:34:34.876Z,100374.33
2018-05-11T11:37:02.350Z,100372.53
2018-05-11T11:39:29.832Z,100378.63
2018-05-11T11:41:57.299Z,100369.52
2018-05-11T11:44:24.812Z,100363.45
2018-05-11T11:46:52.278Z,100359.99
2018-05-11T11:49:19.757Z,100356.77
2018-05-11T11:51:47.217Z,100356.85
2018-05-11T11:54:14.709Z,100348.84
2018-05-11T11:56:42.171Z,100348.78
2018-05-11T11:59:09.648Z,100323.98
2018-05-11T12:01:37.117Z,100343.25
2018-05-11T12:04:04.606Z,100341.95
2018-05-11T12:06:32.065Z,100343.88
2018-05-11T12:08:59.560Z,100338.85
2018-05-11T12:11:27.028Z,100341.34
2018-05-11T12:13:54.585Z,100336.66
2018-05-11T12:16:22.007Z,100333.68
2018-05-11T12:18:49.506Z,100330.75
2018-05-11T12:21:16.970Z,100327.91
2018-05-11T12:23:44.432Z,100322.28
2018-05-11T12:26:11.910Z,100322.77
2018-05-11T12:28:39.365Z,100319.91
2018-05-11T12:31:06.844Z,100326.49
2018-05-11T12:33:34.306Z,100320.45
2018-05-11T12:36:01.802Z,100320.62
2018-05-11T12:38:29.265Z,100314.69
2018-05-11T12:40:56.746Z,100306.92
2018-05-11T12:43:24.213Z,100316.70
2018-05-11T12:45:51.701Z,100315.99
2018-05-11T12:48:19.162Z,100314.76
2018-05-11T12:50:46.646Z,100319.56
2018-05-11T12:53:14.109Z,100309.38
2018-05-11T12:55:41.935Z,100301.06
2018-05-11T12:58:09.398Z,100312.67
2018-05-11T13:00:36.881Z,100307.71
2018-05-11T13:03:04.343Z,100306.83
2018-05-11T13:05:32.260Z,100304.45
2018-05-11T13:07:59.719Z,100295.91
2018-05-11T13:10:27.389Z,100290.41
2018-05-11T13:12:54.899Z,100287.48
2018-05-11T13:15:22.359Z,100284.48
2018-05-11T13:17:49.830Z,100284.77
2018-05-11T13:20:17.314Z,100282.52
2018-05-11T13:22:44.787Z,100283.89
2018-05-11T13:25:12.373Z,100284.34
2018-05-11T13:27:39.845Z,100281.16
2018-05-11T13:30:07.326Z,100280.92
2018-05-11T13:32:34.798Z,100271.26
2018-05-11T13:35:02.289Z,100271.19
2018-05-11T13:37:29.754Z,100267.66
2018-05-11T13:39:57.265Z,100260.58
2018-05-11T13:42:24.729Z,100259.77
2018-05-11T13:44:52.186Z,100259.48
2018-05-11T13:47:19.670Z,100249.59
2018-05-11T13:49:47.137Z,100255.45
2018-05-11T13:52:14.625Z,100255.50
2018-05-11T13:54:42.082Z,100255.86
2018-05-11T13:57:09.601Z,100249.42
2018-05-11T13:59:37.088Z,100253.40
2018-05-11T14:02:04.590Z,100257.25
2018-05-11T14:04:32.052Z,100256.02
2018-05-11T14:06:59.538Z,100248.08
2018-05-11T14:09:27.006Z,100247.80
2018-05-11T14:11:54.540Z,100247.81
2018-05-11T14:14:22.006Z,100256.55
2018-05-11T14:16:49.490Z,100247.91
2018-05-11T14:19:16.953Z,100247.09
2018-05-11T14:21:44.433Z,100240.89
2018-05-11T14:24:11.903Z,100237.47
2018-05-11T14:26:39.390Z,100234.00
2018-05-11T14:29:06.864Z,100231.13
2018-05-11T14:31:34.365Z,100243.78
2018-05-11T14:34:01.839Z,100234.42
2018-05-11T14:36:29.327Z,100226.84
2018-05-11T14:38:56.798Z,100230.69
2018-05-11T14:41:24.285Z,100228.66
2018-05-11T14:43:51.750Z,100223.27
2018-05-11T14:46:19.233Z,100218.70
2018-05-11T14:48:46.693Z,100218.41
2018-05-11T14:51:14.183Z,100221.78
2018-05-11T14:53:41.981Z,100216.87
2018-05-11T14:56:09.465Z,100211.21
2018-05-11T14:58:37.096Z,100211.50
2018-05-11T15:01:04.529Z,100205.76
2018-05-11T15:03:32.005Z,100204.16
2018-05-11T15:05:59.497Z,100199.75
2018-05-11T15:08:26.987Z,100202.78
2018-05-11T15:10:54.445Z,100199.11
2018-05-11T15:13:21.930Z,100194.67
2018-05-11T15:15:49.393Z,100196.69
2018-05-11T15:18:16.873Z,100190.69
2018-05-11T15:20:44.329Z,100188.84
2018-05-11T15:23:11.814Z,100185.01
2018-05-11T15:25:39.277Z,100190.19
2018-05-11T15:28:07.528Z,100188.31
2018-05-11T15:30:34.993Z,100183.28
2018-05-11T15:33:02.495Z,100184.09
2018-05-11T15:35:29.999Z,100181.73
2018-05-11T15:37:57.478Z,100182.27
2018-05-11T15:40:25.002Z,100175.21
2018-05-11T15:42:52.455Z,100165.95
2018-05-11T15:45:19.919Z,100161.42
2018-05-11T15:47:47.397Z,100167.23
2018-05-11T15:50:14.870Z,100163.85
2018-05-11T15:52:42.358Z,100161.27
2018-05-11T15:55:09.821Z,100162.33
2018-05-11T15:57:37.303Z,100152.75
2018-05-11T16:00:04.764Z,100151.29
2018-05-11T16:02:32.251Z,100149.60
2018-05-11T16:04:59.721Z,100145.57
2018-05-11T16:07:27.206Z,100147.47
2018-05-11T16:09:54.676Z,100145.52
2018-05-11T16:12:22.153Z,100150.42
2018-05-11T16:14:49.610Z,100148.63
2018-05-11T16:17:17.094Z,100146.38
2018-05-11T16:19:44.553Z,100142.73
2018-05-11T16:22:12.137Z,100138.37
2018-05-11T16:24:39.626Z,100140.28
2018-05-11T16:27:07.096Z,100137.94
2018-05-11T16:29:34.583Z,100135.09
2018-05-11T16:32:02.052Z,100137.36
2018-05-11T16:34:29.534Z,100138.89
2018-05-11T16:36:57.010Z,100135.73
2018-05-11T16:39:24.493Z,100131.11
2018-05-11T16:41:51.969Z,100129.66
2018-05-11T16:44:19.453Z,100134.70
2018-05-11T16:46:46.913Z,100125.89
2018-05-11T16:49:14.405Z,100128.11
2018-05-11T16:51:41.861Z,100128.16
2018-05-11T16:54:09.349Z,100115.46
2018-05-11T16:56:36.815Z,100116.30
2018-05-11T16:59:04.306Z,100115.71
2018-05-11T17:01:31.766Z,100121.35
2018-05-11T17:03:59.254Z,100119.49
2018-05-11T17:06:26.713Z,100122.52
2018-05-11T17:08:54.193Z,100114.45
2018-05-11T17:11:21.667Z,100114.14
2018-05-11T17:13:49.146Z,100113.03
2018-05-11T17:16:16.611Z,100117.16
2018-05-11T17:18:44.102Z,100111.42
2018-05-11T17:21:11.559Z,100116.16
2018-05-11T17:23:39.034Z,100116.97
2018-05-11T17:26:06.496Z,100118.86
2018-05-11T17:28:33.984Z,100116.38
2018-05-11T17:31:01.459Z,100113.26
2018-05-11T17:33:28.940Z,100111.11
2018-05-11T17:35:56.403Z,100105.46
2018-05-11T17:38:23.906Z,100105.31
2018-05-11T17:40:51.402Z,100104.15
2018-05-11T17:43:19.402Z,100099.14
2018-05-11T17:45:46.890Z,100109.23
2018-05-11T17:48:14.423Z,100107.80
2018-05-11T17:50:41.913Z,100105.20
2018-05-11T17:53:09.371Z,100104.01
2018-05-11T17:55:36.862Z,100108.89
2018-05-11T17:58:04.322Z,100108.52
2018-05-11T18:00:31.806Z,100107.39
2018-05-11T18:02:59.271Z,100108.17
2018-05-11T18:05:26.763Z,100107.59
2018-05-11T18:07:54.220Z,100109.80
2018-05-11T18:10:21.818Z,100110.88
2018-05-11T18:12:49.468Z,100112.41
2018-05-11T18:15:16.956Z,100110.08
2018-05-11T18:17:44.425Z,100109.96
2018-05-11T18:20:11.908Z,100107.25
2018-05-11T18:22:39.383Z,100108.86
2018-05-11T18:25:06.877Z,100111.09
2018-05-11T18:27:34.341Z,100103.45
2018-05-11T18:30:01.872Z,100102.86
2018-05-11T18:32:29.313Z,100099.17
2018-05-11T18:34:56.795Z,100103.45
2018-05-11T18:37:24.261Z,100103.92
2018-05-11T18:39:51.737Z,100102.08
2018-05-11T18:42:19.203Z,100108.12
2018-05-11T18:44:46.685Z,100102.84
2018-05-11T18:47:14.141Z,100103.00
2018-05-11T18:49:41.639Z,100100.87
2018-05-11T18:52:09.106Z,100112.27
2018-05-11T18:54:36.989Z,100107.84
2018-05-11T18:57:04.066Z,100110.09
2018-05-11T18:59:34.043Z,100109.36
2018-05-11T19:02:01.510Z,100112.17
2018-05-11T19:04:28.970Z,100111.53
2018-05-11T19:06:56.478Z,100110.58
2018-05-11T19:09:23.951Z,100119.55
2018-05-11T19:11:51.438Z,100119.48
2018-05-11T19:14:18.899Z,100120.70
2018-05-11T19:16:46.388Z,100116.14
2018-05-11T19:19:13.846Z,100121.22
2018-05-11T19:21:41.334Z,100126.64
2018-05-11T19:24:08.814Z,100131.42
2018-05-11T19:26:46.240Z,100136.05
2018-05-11T19:29:13.726Z,100146.53
2018-05-11T19:31:41.215Z,100143.89
2018-05-11T19:34:08.690Z,100149.51
2018-05-11T19:36:36.198Z,100145.14
2018-05-11T19:39:03.664Z,100142.02
2018-05-11T19:41:31.152Z,100145.60
2018-05-11T19:43:58.613Z,100148.63
2018-05-11T19:46:26.100Z,100151.53
2018-05-11T19:48:53.561Z,100143.31
2018-05-11T19:51:21.043Z,100146.36
2018-05-11T19:53:48.510Z,100148.77
2018-05-11T19:56:17.547Z,100152.78
2018-05-11T19:58:45.184Z,100153.03
2018-05-11T20:01:12.791Z,100160.53
2018-05-11T20:03:40.498Z,100160.05
2018-05-11T20:06:08.071Z,100163.16
2018-05-11T20:08:35.648Z,100158.09
2018-05-11T20:11:03.238Z,100159.55
2018-05-11T20:13:30.730Z,100161.14
2018-05-11T20:15:58.263Z,100156.55
2018-05-11T20:18:26.006Z,100162.06
2018-05-11T20:20:53.525Z,100167.94
2018-05-11T20:23:21.031Z,100169.31
2018-05-11T20:25:48.635Z,100165.41
2018-05-11T20:28:16.154Z,100169.66
2018-05-11T20:30:43.813Z,100162.98
2018-05-11T20:33:11.460Z,100168.38
2018-05-11T20:35:39.719Z,100162.22
2018-05-11T20:38:07.242Z,100161.42
2018-05-11T20:40:34.742Z,100166.44
2018-05-11T20:43:02.281Z,100162.06
2018-05-11T20:45:29.790Z,100159.62
2018-05-11T20:47:57.289Z,100160.59
2018-05-11T20:50:24.781Z,100167.25
2018-05-11T20:52:52.302Z,100161.14
2018-05-11T20:55:19.835Z,100162.45
2018-05-11T20:57:48.128Z,100166.00
2018-05-11T21:00:15.546Z,100164.64
2018-05-11T21:02:43.392Z,100161.48
2018-05-11T21:05:10.886Z,100160.41
2018-05-11T21:07:38.433Z,100154.38
2018-05-11T21:10:05.977Z,100159.29
2018-05-11T21:12:33.587Z,100151.06
2018-05-11T21:15:01.098Z,100152.20
2018-05-11T21:17:28.625Z,100148.52
2018-05-11T21:19:56.133Z,100152.91
2018-05-11T21:22:23.955Z,100156.02
2018-05-11T21:24:51.464Z,100154.87
2018-05-11T21:27:19.133Z,100156.81
2018-05-11T21:29:48.515Z,100163.99
2018-05-11T21:32:16.006Z,100156.10
2018-05-11T21:34:43.734Z,100165.81
2018-05-11T21:37:11.235Z,100157.58
2018-05-11T21:39:38.721Z,100169.03
2018-05-11T21:42:06.243Z,100173.58
2018-05-11T21:44:33.732Z,100175.20
2018-05-11T21:47:01.207Z,100172.34
2018-05-11T21:49:28.689Z,100170.44
2018-05-11T21:51:56.201Z,100169.37
2018-05-11T21:54:23.741Z,100172.74
2018-05-11T21:56:51.298Z,100173.91
2018-05-11T21:59:18.807Z,100171.97
2018-05-11T22:01:46.340Z,100172.93
2018-05-11T22:04:13.874Z,100168.20
2018-05-11T22:06:41.411Z,100169.55
2018-05-11T22:09:08.918Z,100174.36
2018-05-11T22:11:36.480Z,100179.93
2018-05-11T22:14:03.986Z,100174.74
2018-05-11T22:16:31.550Z,100181.44
2018-05-11T22:18:59.074Z,100176.57
2018-05-11T22:21:26.622Z,100178.59
2018-05-11T22:23:54.142Z,100172.47
2018-05-11T22:26:21.649Z,100172.83
2018-05-11T22:28:49.160Z,100174.36
2018-05-11T22:31:16.686Z,100163.19
2018-05-11T22:33:44.194Z,100169.77
2018-05-11T22:36:11.699Z,100163.72
2018-05-11T22:38:39.251Z,100164.91
2018-05-11T22:41:06.767Z,100161.77
2018-05-11T22:43:34.323Z,100169.95
2018-05-11T22:46:01.847Z,100175.27
2018-05-11T22:48:29.403Z,100171.72
2018-05-11T22:50:56.937Z,100170.36
2018-05-11T22:53:24.478Z,100176.22
2018-05-11T22:55:51.975Z,100168.17
2018-05-11T22:58:19.546Z,100171.31
2018-05-11T23:00:47.052Z,100169.71
2018-05-11T23:03:14.578Z,100171.61
2018-05-11T23:05:42.092Z,100171.20
2018-05-11T23:08:09.595Z,100179.52
2018-05-11T23:10:37.113Z,100177.61
2018-05-11T23:13:04.597Z,100175.70
2018-05-11T23:15:32.113Z,100172.56
2018-05-11T23:17:59.613Z,100173.78
2018-05-11T23:20:27.154Z,100168.73
2018-05-11T23:22:54.646Z,100175.31
2018-05-11T23:25:22.197Z,100174.11
2018-05-11T23:27:49.779Z,100173.44
2018-05-11T23:30:17.248Z,100174.38
2018-05-11T23:32:44.795Z,100179.59
2018-05-11T23:35:12.422Z,100173.31
2018-05-11T23:37:39.926Z,100171.95
2018-05-11T23:40:07.418Z,100165.52
2018-05-11T23:42:34.914Z,100166.63
2018-05-11T23:45:02.450Z,100166.59
2018-05-11T23:47:29.993Z,100164.02
2018-05-11T23:49:57.494Z,100163.48
2018-05-11T23:52:25.014Z,100164.71
2018-05-11T23:54:52.504Z,100158.87
2018-05-11T23:57:20.025Z,100162.53
2018-05-11T23:59:47.592Z,100157.22
